createdAt,value
2019-05-05T00:00:29.122Z,100870.58
2019-05-05T00:03:04.287Z,100878.47
2019-05-05T00:05:37.577Z,100870.14
2019-05-05T00:08:09.743Z,100879.66
2019-05-05T00:10:45.910Z,100882.06
2019-05-05T00:13:19.395Z,100888.59
2019-05-05T00:15:55.372Z,100889.95
2019-05-05T00:18:28.675Z,100889.71
2019-05-05T00:21:00.617Z,100899.77
2019-05-05T00:23:34.396Z,100899.28
2019-05-05T00:26:05.779Z,100902.03
2019-05-05T00:28:37.859Z,100902.89
2019-05-05T00:31:09.943Z,100908.32
2019-05-05T00:33:41.677Z,100905.11
2019-05-05T00:36:14.565Z,100905.95
2019-05-05T00:38:46.525Z,100904.06
2019-05-05T00:41:18.714Z,100902.48
2019-05-05T00:43:50.888Z,100904.38
2019-05-05T00:46:27.035Z,100900.08
2019-05-05T00:48:59.219Z,100902.01
2019-05-05T00:51:30.968Z,100901.50
2019-05-05T00:54:04.401Z,100899.09
2019-05-05T00:56:36.027Z,100898.83
2019-05-05T00:59:09.650Z,100899.66
2019-05-05T01:01:44.829Z,100896.45
2019-05-05T01:04:18.093Z,100897.80
2019-05-05T01:06:49.947Z,100893.76
2019-05-05T01:09:25.212Z,100892.70
2019-05-05T01:11:56.952Z,100896.23
2019-05-05T01:14:29.205Z,100899.73
2019-05-05T01:17:00.879Z,100901.63
2019-05-05T01:19:34.944Z,100909.73
2019-05-05T01:22:06.753Z,100909.77
2019-05-05T01:24:38.621Z,100910.05
2019-05-05T01:27:10.597Z,100907.34
2019-05-05T01:29:42.232Z,100911.95
2019-05-05T01:32:16.956Z,100915.17
2019-05-05T01:34:49.148Z,100908.97
2019-05-05T01:37:22.341Z,100912.75
2019-05-05T01:40:11.098Z,100924.08
2019-05-05T01:42:44.683Z,100912.47
2019-05-05T01:45:16.448Z,100913.83
2019-05-05T01:47:48.310Z,100917.56
2019-05-05T01:50:21.373Z,100925.95
2019-05-05T01:52:55.445Z,100926.22
2019-05-05T01:55:27.104Z,100924.32
2019-05-05T01:57:58.956Z,100927.82
2019-05-05T02:00:31.642Z,100928.65
2019-05-05T02:03:04.536Z,100923.77
2019-05-05T02:05:36.393Z,100923.77
2019-05-05T02:08:09.281Z,100924.59
2019-05-05T02:10:41.043Z,100930.27
2019-05-05T02:13:13.110Z,100927.02
2019-05-05T02:15:44.980Z,100930.28
2019-05-05T02:18:16.836Z,100933.25
2019-05-05T02:21:06.113Z,100932.19
2019-05-05T02:23:38.279Z,100936.23
2019-05-05T02:26:10.760Z,100938.14
2019-05-05T02:28:54.261Z,100941.64
2019-05-05T02:31:36.061Z,100931.66
2019-05-05T02:34:07.429Z,100942.46
2019-05-05T02:36:39.390Z,100942.98
2019-05-05T02:39:11.561Z,100945.69
2019-05-05T02:41:45.330Z,100943.27
2019-05-05T02:44:17.240Z,100947.56
2019-05-05T02:46:55.282Z,100952.97
2019-05-05T02:49:27.844Z,100951.61
2019-05-05T02:52:00.503Z,100946.21
2019-05-05T02:54:34.850Z,100954.84
2019-05-05T02:57:08.141Z,100958.89
2019-05-05T02:59:58.125Z,100958.89
2019-05-05T03:02:35.388Z,100962.39
2019-05-05T03:05:07.847Z,100958.33
2019-05-05T03:07:40.348Z,100962.39
2019-05-05T03:10:14.134Z,100964.53
2019-05-05T03:12:46.330Z,100966.44
2019-05-05T03:15:37.447Z,100965.33
2019-05-05T03:18:09.427Z,100975.34
2019-05-05T03:20:43.099Z,100976.66
2019-05-05T03:23:15.187Z,100984.20
2019-05-05T03:25:47.358Z,100978.23
2019-05-05T03:28:19.445Z,100980.92
2019-05-05T03:30:51.600Z,100980.64
2019-05-05T03:33:25.053Z,100990.89
2019-05-05T03:35:57.080Z,100994.66
2019-05-05T03:38:28.940Z,100994.09
2019-05-05T03:41:03.591Z,100998.66
2019-05-05T03:43:38.184Z,101000.55
2019-05-05T03:46:10.760Z,101005.91
2019-05-05T03:48:43.847Z,101008.02
2019-05-05T03:51:20.922Z,101003.37
2019-05-05T03:53:49.623Z,101005.53
2019-05-05T03:56:21.917Z,101017.41
2019-05-05T03:58:54.369Z,101015.98
2019-05-05T04:01:39.690Z,101026.23
2019-05-05T04:04:21.689Z,101030.53
2019-05-05T04:06:58.429Z,101029.94
2019-05-05T04:09:30.207Z,101028.80
2019-05-05T04:12:04.268Z,101033.61
2019-05-05T04:14:35.357Z,101031.67
2019-05-05T04:17:14.196Z,101028.08
2019-05-05T04:19:50.675Z,101035.36
2019-05-05T04:22:24.858Z,101037.48
2019-05-05T04:24:56.944Z,101029.55
2019-05-05T04:27:28.889Z,101034.66
2019-05-05T04:30:00.856Z,101035.42
2019-05-05T04:32:34.725Z,101040.54
2019-05-05T04:35:06.831Z,101042.92
2019-05-05T04:37:38.504Z,101041.80
2019-05-05T04:40:10.678Z,101044.97
2019-05-05T04:42:44.075Z,101043.80
2019-05-05T04:45:16.156Z,101043.17
2019-05-05T04:47:53.921Z,101038.75
2019-05-05T04:50:27.225Z,101041.33
2019-05-05T04:53:00.742Z,101045.83
2019-05-05T04:55:33.756Z,101051.44
2019-05-05T04:58:05.593Z,101051.03
2019-05-05T05:00:37.863Z,101044.42
2019-05-05T05:03:11.037Z,101048.05
2019-05-05T05:05:56.843Z,101048.98
2019-05-05T05:08:28.703Z,101048.50
2019-05-05T05:11:00.659Z,101043.13
2019-05-05T05:13:34.599Z,101044.00
2019-05-05T05:16:06.021Z,101043.75
2019-05-05T05:18:37.876Z,101042.12
2019-05-05T05:21:09.553Z,101042.75
2019-05-05T05:23:41.398Z,101041.55
2019-05-05T05:26:13.938Z,101052.97
2019-05-05T05:28:45.652Z,101047.17
2019-05-05T05:31:17.649Z,101051.73
2019-05-05T05:33:49.693Z,101048.68
2019-05-05T05:36:21.353Z,101059.27
2019-05-05T05:38:54.747Z,101061.96
2019-05-05T05:41:45.946Z,101059.45
2019-05-05T05:44:19.229Z,101058.61
2019-05-05T05:47:05.255Z,101064.83
2019-05-05T05:49:38.763Z,101059.36
2019-05-05T05:52:15.763Z,101053.52
2019-05-05T05:54:44.247Z,101050.14
2019-05-05T05:57:16.134Z,101048.20
2019-05-05T05:59:47.739Z,101039.59
2019-05-05T06:02:19.620Z,101044.77
2019-05-05T06:04:51.477Z,101042.20
2019-05-05T06:07:24.550Z,101044.59
2019-05-05T06:09:56.659Z,101043.37
2019-05-05T06:12:28.704Z,101045.75
2019-05-05T06:15:00.465Z,101044.14
2019-05-05T06:17:34.319Z,101043.98
2019-05-05T06:20:07.263Z,101041.75
2019-05-05T06:22:39.213Z,101034.61
2019-05-05T06:25:15.543Z,101026.63
2019-05-05T06:27:45.601Z,101032.66
2019-05-05T06:30:17.763Z,101028.81
2019-05-05T06:32:49.422Z,101029.28
2019-05-05T06:35:21.304Z,101025.61
2019-05-05T06:37:54.272Z,101025.52
2019-05-05T06:40:30.968Z,101021.51
2019-05-05T06:43:16.846Z,101023.66
2019-05-05T06:45:50.262Z,101019.66
2019-05-05T06:48:23.731Z,101019.06
2019-05-05T06:50:55.400Z,101023.69
2019-05-05T06:53:27.368Z,101021.86
2019-05-05T06:55:59.356Z,101017.51
2019-05-05T06:58:31.219Z,101018.28
2019-05-05T07:01:03.620Z,101023.05
2019-05-05T07:03:35.459Z,101029.63
2019-05-05T07:06:07.461Z,101033.71
2019-05-05T07:08:39.183Z,101038.43
2019-05-05T07:11:11.168Z,101032.54
2019-05-05T07:13:44.475Z,101040.03
2019-05-05T07:16:16.106Z,101035.95
2019-05-05T07:18:48.067Z,101032.66
2019-05-05T07:21:20.034Z,101027.63
2019-05-05T07:23:53.929Z,101030.85
2019-05-05T07:26:25.601Z,101032.25
2019-05-05T07:28:57.590Z,101031.23
2019-05-05T07:31:29.419Z,101022.77
2019-05-05T07:34:01.404Z,101024.83
2019-05-05T07:36:46.558Z,101026.55
2019-05-05T07:39:18.233Z,101023.23
2019-05-05T07:41:50.308Z,101025.52
2019-05-05T07:44:29.001Z,101012.66
2019-05-05T07:46:55.572Z,101024.54
2019-05-05T07:49:27.438Z,101013.86
2019-05-05T07:51:59.553Z,101015.47
2019-05-05T07:54:31.369Z,101015.86
2019-05-05T07:57:04.227Z,101016.52
2019-05-05T07:59:35.843Z,101021.34
2019-05-05T08:02:07.768Z,101023.98
2019-05-05T08:04:39.837Z,101021.30
2019-05-05T08:07:11.690Z,101021.91
2019-05-05T08:09:44.587Z,101018.30
2019-05-05T08:12:16.353Z,101007.58
2019-05-05T08:14:48.198Z,101016.73
2019-05-05T08:17:34.175Z,101009.72
2019-05-05T08:20:09.353Z,101006.48
2019-05-05T08:22:41.015Z,101007.02
2019-05-05T08:25:17.174Z,101006.56
2019-05-05T08:27:50.364Z,101002.73
2019-05-05T08:30:24.414Z,100996.01
2019-05-05T08:32:55.650Z,100990.56
2019-05-05T08:35:27.180Z,100984.12
2019-05-05T08:37:58.837Z,100993.08
2019-05-05T08:40:30.647Z,100993.91
2019-05-05T08:43:04.558Z,100990.22
2019-05-05T08:45:35.896Z,100992.99
2019-05-05T08:48:07.924Z,100988.38
2019-05-05T08:50:39.639Z,100981.53
2019-05-05T08:53:13.688Z,100976.95
2019-05-05T08:55:44.842Z,100983.42
2019-05-05T08:58:16.391Z,100981.53
2019-05-05T09:00:48.572Z,100982.13
2019-05-05T09:03:20.323Z,100980.46
2019-05-05T09:05:54.076Z,100970.08
2019-05-05T09:08:25.586Z,100966.92
2019-05-05T09:10:57.430Z,100963.05
2019-05-05T09:13:29.193Z,100970.25
2019-05-05T09:16:01.075Z,100966.66
2019-05-05T09:18:33.937Z,100967.14
2019-05-05T09:21:05.808Z,100960.83
2019-05-05T09:23:39.104Z,100951.02
2019-05-05T09:26:13.805Z,100956.17
2019-05-05T09:28:51.035Z,100952.25
2019-05-05T09:31:23.981Z,100954.27
2019-05-05T09:33:56.012Z,100945.86
2019-05-05T09:36:27.644Z,100944.06
2019-05-05T09:38:59.518Z,100943.80
2019-05-05T09:41:31.475Z,100945.55
2019-05-05T09:44:04.315Z,100941.75
2019-05-05T09:46:36.026Z,100940.07
2019-05-05T09:49:07.986Z,100943.22
2019-05-05T09:51:39.847Z,100930.66
2019-05-05T09:54:14.523Z,100927.94
2019-05-05T09:56:45.211Z,100929.08
2019-05-05T09:59:17.095Z,100917.99
2019-05-05T10:01:50.052Z,100922.44
2019-05-05T10:04:23.852Z,100922.34
2019-05-05T10:06:55.534Z,100922.45
2019-05-05T10:09:27.298Z,100926.31
2019-05-05T10:11:59.265Z,100915.06
2019-05-05T10:14:30.909Z,100912.50
2019-05-05T10:17:04.663Z,100916.34
2019-05-05T10:19:35.888Z,100911.24
2019-05-05T10:22:07.932Z,100916.13
2019-05-05T10:24:41.348Z,100915.14
2019-05-05T10:27:13.009Z,100918.89
2019-05-05T10:29:44.855Z,100913.59
2019-05-05T10:32:16.921Z,100905.42
2019-05-05T10:34:50.523Z,100904.52
2019-05-05T10:37:23.471Z,100905.09
2019-05-05T10:39:55.401Z,100904.92
2019-05-05T10:42:29.100Z,100902.27
2019-05-05T10:45:00.950Z,100901.23
2019-05-05T10:47:34.368Z,100895.17
2019-05-05T10:50:07.053Z,100888.69
2019-05-05T10:52:38.731Z,100887.82
2019-05-05T10:55:10.516Z,100881.68
2019-05-05T10:57:43.582Z,100881.89
2019-05-05T11:00:19.952Z,100879.19
2019-05-05T11:02:51.771Z,100872.19
2019-05-05T11:05:23.593Z,100879.40
2019-05-05T11:07:55.615Z,100876.97
2019-05-05T11:10:34.869Z,100877.17
2019-05-05T11:13:06.713Z,100876.78
2019-05-05T11:15:38.871Z,100877.73
2019-05-05T11:18:10.857Z,100872.03
2019-05-05T11:20:44.663Z,100870.81
2019-05-05T11:23:16.216Z,100866.63
2019-05-05T11:25:48.082Z,100867.50
2019-05-05T11:28:20.168Z,100870.48
2019-05-05T11:30:53.753Z,100874.76
2019-05-05T11:33:30.007Z,100870.43
2019-05-05T11:36:04.616Z,100868.78
2019-05-05T11:38:36.411Z,100863.20
2019-05-05T11:41:08.376Z,100862.98
2019-05-05T11:43:41.064Z,100869.17
2019-05-05T11:46:14.088Z,100857.37
2019-05-05T11:48:45.915Z,100854.37
2019-05-05T11:51:17.676Z,100859.23
2019-05-05T11:53:51.074Z,100845.95
2019-05-05T11:56:22.742Z,100845.58
2019-05-05T11:58:54.729Z,100848.19
2019-05-05T12:01:26.564Z,100850.77
2019-05-05T12:03:58.645Z,100849.98
2019-05-05T12:06:30.301Z,100849.75
2019-05-05T12:09:03.793Z,100833.25
2019-05-05T12:11:36.270Z,100849.03
2019-05-05T12:14:09.878Z,100835.08
2019-05-05T12:16:41.143Z,100831.23
2019-05-05T12:19:13.720Z,100838.26
2019-05-05T12:21:45.570Z,100824.39
2019-05-05T12:24:18.955Z,100837.09
2019-05-05T12:26:57.721Z,100829.75
2019-05-05T12:29:29.232Z,100836.92
2019-05-05T12:32:01.321Z,100827.00
2019-05-05T12:34:34.082Z,100823.41
2019-05-05T12:37:05.747Z,100823.41
2019-05-05T12:39:38.801Z,100825.39
2019-05-05T12:42:10.699Z,100817.84
2019-05-05T12:44:44.424Z,100815.67
2019-05-05T12:47:27.041Z,100814.08
2019-05-05T12:49:59.113Z,100809.72
2019-05-05T12:52:30.873Z,100821.25
2019-05-05T12:55:05.085Z,100814.08
2019-05-05T12:57:36.341Z,100817.44
2019-05-05T13:00:09.636Z,100814.53
2019-05-05T13:02:41.400Z,100820.64
2019-05-05T13:05:14.507Z,100815.05
2019-05-05T13:07:47.377Z,100810.59
2019-05-05T13:10:21.614Z,100809.55
2019-05-05T13:12:54.353Z,100812.44
2019-05-05T13:15:26.260Z,100808.41
2019-05-05T13:17:58.205Z,100811.67
2019-05-05T13:20:37.132Z,100805.16
2019-05-05T13:23:14.488Z,100805.16
2019-05-05T13:25:59.338Z,100802.18
2019-05-05T13:28:30.629Z,100806.16
2019-05-05T13:31:04.644Z,100806.16
2019-05-05T13:33:37.356Z,100802.98
2019-05-05T13:36:09.214Z,100810.74
2019-05-05T13:38:41.065Z,100802.78
2019-05-05T13:41:12.705Z,100797.62
2019-05-05T13:43:44.494Z,100807.93
2019-05-05T13:46:24.704Z,100806.32
2019-05-05T13:48:58.153Z,100805.52
2019-05-05T13:51:30.102Z,100813.63
2019-05-05T13:54:01.758Z,100810.64
2019-05-05T13:56:33.608Z,100806.74
2019-05-05T13:59:05.509Z,100803.02
2019-05-05T14:01:37.681Z,100813.11
2019-05-05T14:04:09.438Z,100802.41
2019-05-05T14:06:41.080Z,100798.83
2019-05-05T14:09:13.960Z,100799.83
2019-05-05T14:11:46.156Z,100803.98
2019-05-05T14:14:18.121Z,100804.98
2019-05-05T14:16:49.987Z,100798.64
2019-05-05T14:19:22.050Z,100798.64
2019-05-05T14:21:54.938Z,100800.20
2019-05-05T14:24:34.076Z,100799.61
2019-05-05T14:27:06.042Z,100805.74
2019-05-05T14:29:39.646Z,100796.62
2019-05-05T14:32:13.663Z,100797.98
2019-05-05T14:34:46.253Z,100806.04
2019-05-05T14:37:35.510Z,100805.59
2019-05-05T14:40:08.045Z,100806.36
2019-05-05T14:42:39.744Z,100806.52
2019-05-05T14:45:12.182Z,100799.80
2019-05-05T14:47:44.222Z,100808.33
2019-05-05T14:50:16.791Z,100806.34
2019-05-05T14:52:48.530Z,100802.91
2019-05-05T14:55:22.380Z,100806.52
2019-05-05T14:57:53.793Z,100800.01
2019-05-05T15:00:26.691Z,100799.71
2019-05-05T15:02:58.441Z,100802.38
2019-05-05T15:05:44.476Z,100804.58
2019-05-05T15:08:24.280Z,100805.98
2019-05-05T15:11:07.821Z,100795.76
2019-05-05T15:13:39.689Z,100804.87
2019-05-05T15:16:11.637Z,100782.70
2019-05-05T15:18:44.421Z,100796.82
2019-05-05T15:21:16.079Z,100788.39
2019-05-05T15:23:48.164Z,100796.94
2019-05-05T15:26:20.019Z,100788.79
2019-05-05T15:29:00.868Z,100795.84
2019-05-05T15:31:24.592Z,100793.06
2019-05-05T15:33:56.013Z,100792.22
2019-05-05T15:36:29.670Z,100783.97
2019-05-05T15:39:01.602Z,100790.72
2019-05-05T15:41:35.088Z,100789.13
2019-05-05T15:44:06.950Z,100797.17
2019-05-05T15:46:39.041Z,100797.34
2019-05-05T15:49:11.004Z,100789.78
2019-05-05T15:51:44.344Z,100789.98
2019-05-05T15:54:16.470Z,100785.64
2019-05-05T15:56:48.233Z,100784.67
2019-05-05T15:59:20.281Z,100787.29
2019-05-05T16:01:52.167Z,100787.69
2019-05-05T16:04:24.011Z,100786.09
2019-05-05T16:06:55.890Z,100782.08
2019-05-05T16:09:27.651Z,100782.95
2019-05-05T16:11:59.412Z,100785.92
2019-05-05T16:14:32.910Z,100787.13
2019-05-05T16:17:06.824Z,100782.66
2019-05-05T16:19:40.210Z,100782.90
2019-05-05T16:22:14.554Z,100773.00
2019-05-05T16:24:48.616Z,100774.22
2019-05-05T16:27:22.866Z,100779.72
2019-05-05T16:29:56.453Z,100780.38
2019-05-05T16:32:28.223Z,100773.41
2019-05-05T16:35:03.490Z,100776.41
2019-05-05T16:37:33.799Z,100780.09
2019-05-05T16:40:10.323Z,100776.16
2019-05-05T16:42:43.594Z,100787.56
2019-05-05T16:45:16.643Z,100784.09
2019-05-05T16:47:48.736Z,100778.80
2019-05-05T16:50:20.632Z,100776.66
2019-05-05T16:52:54.476Z,100775.17
2019-05-05T16:55:39.895Z,100780.87
2019-05-05T16:58:13.904Z,100783.42
2019-05-05T17:00:45.245Z,100786.27
2019-05-05T17:03:17.380Z,100782.20
2019-05-05T17:05:49.397Z,100786.44
2019-05-05T17:08:21.255Z,100780.50
2019-05-05T17:10:53.838Z,100782.99
2019-05-05T17:13:27.443Z,100781.72
2019-05-05T17:16:04.183Z,100784.20
2019-05-05T17:18:49.820Z,100784.72
2019-05-05T17:21:35.596Z,100783.50
2019-05-05T17:24:07.569Z,100791.96
2019-05-05T17:26:39.407Z,100791.06
2019-05-05T17:29:11.168Z,100795.43
2019-05-05T17:31:44.364Z,100801.98
2019-05-05T17:34:16.147Z,100792.06
2019-05-05T17:36:48.071Z,100787.08
2019-05-05T17:39:20.691Z,100789.44
2019-05-05T17:41:54.085Z,100784.44
2019-05-05T17:44:27.478Z,100784.55
2019-05-05T17:47:01.102Z,100787.73
2019-05-05T17:49:51.006Z,100777.72
2019-05-05T17:52:24.372Z,100783.80
2019-05-05T17:54:57.168Z,100779.56
2019-05-05T17:57:28.763Z,100779.09
2019-05-05T18:00:00.697Z,100785.94
2019-05-05T18:02:34.394Z,100781.38
2019-05-05T18:05:07.079Z,100785.42
2019-05-05T18:07:40.585Z,100788.73
2019-05-05T18:10:14.621Z,100784.08
2019-05-05T18:12:50.947Z,100782.14
2019-05-05T18:15:40.955Z,100790.02
2019-05-05T18:18:13.911Z,100786.92
2019-05-05T18:20:45.928Z,100787.50
2019-05-05T18:23:17.552Z,100790.44
2019-05-05T18:25:49.738Z,100792.52
2019-05-05T18:28:21.923Z,100796.52
2019-05-05T18:30:54.012Z,100793.11
2019-05-05T18:33:25.738Z,100784.05
2019-05-05T18:35:57.710Z,100786.13
2019-05-05T18:38:29.706Z,100789.30
2019-05-05T18:41:03.723Z,100794.09
2019-05-05T18:43:41.085Z,100798.63
2019-05-05T18:46:13.659Z,100793.60
2019-05-05T18:48:45.517Z,100796.20
2019-05-05T18:51:17.086Z,100800.77
2019-05-05T18:53:48.951Z,100807.77
2019-05-05T18:56:20.593Z,100803.86
2019-05-05T18:58:54.233Z,100804.33
2019-05-05T19:01:40.205Z,100810.84
2019-05-05T19:04:13.810Z,100808.86
2019-05-05T19:06:54.547Z,100816.15
2019-05-05T19:09:26.341Z,100816.89
2019-05-05T19:11:58.596Z,100813.28
2019-05-05T19:14:30.372Z,100817.51
2019-05-05T19:17:02.017Z,100817.56
2019-05-05T19:19:34.557Z,100823.85
2019-05-05T19:22:08.135Z,100820.39
2019-05-05T19:24:39.988Z,100826.14
2019-05-05T19:27:14.061Z,100833.80
2019-05-05T19:29:46.364Z,100826.56
2019-05-05T19:32:18.316Z,100831.80
2019-05-05T19:34:50.196Z,100830.26
2019-05-05T19:37:23.541Z,100827.59
2019-05-05T19:39:55.374Z,100830.31
2019-05-05T19:42:27.311Z,100833.87
2019-05-05T19:44:59.395Z,100830.41
2019-05-05T19:47:34.049Z,100833.19
2019-05-05T19:50:14.427Z,100822.12
2019-05-05T19:52:47.456Z,100817.27
2019-05-05T19:55:19.136Z,100823.81
2019-05-05T19:57:50.975Z,100821.19
2019-05-05T20:00:26.100Z,100819.14
2019-05-05T20:03:04.384Z,100827.44
2019-05-05T20:05:30.272Z,100820.52
2019-05-05T20:08:04.013Z,100831.22
2019-05-05T20:10:35.226Z,100833.01
2019-05-05T20:13:07.380Z,100830.95
2019-05-05T20:15:57.591Z,100830.52
2019-05-05T20:18:29.403Z,100834.45
2019-05-05T20:21:06.387Z,100836.46
2019-05-05T20:23:35.328Z,100838.70
2019-05-05T20:26:07.088Z,100841.27
2019-05-05T20:28:39.038Z,100846.25
2019-05-05T20:31:10.847Z,100842.52
2019-05-05T20:33:44.210Z,100843.66
2019-05-05T20:36:17.651Z,100845.92
2019-05-05T20:38:51.012Z,100846.79
2019-05-05T20:41:24.850Z,100842.27
2019-05-05T20:43:56.377Z,100843.16
2019-05-05T20:46:28.237Z,100840.52
2019-05-05T20:49:00.204Z,100843.58
2019-05-05T20:51:33.832Z,100842.81
2019-05-05T20:54:05.249Z,100843.39
2019-05-05T20:56:36.812Z,100837.50
2019-05-05T20:59:08.784Z,100833.77
2019-05-05T21:01:40.751Z,100833.50
2019-05-05T21:04:14.091Z,100828.37
2019-05-05T21:06:46.209Z,100837.34
2019-05-05T21:09:18.396Z,100828.47
2019-05-05T21:11:50.356Z,100831.42
2019-05-05T21:14:33.655Z,100830.66
2019-05-05T21:16:56.435Z,100825.80
2019-05-05T21:19:28.503Z,100824.25
2019-05-05T21:22:04.089Z,100824.34
2019-05-05T21:24:38.266Z,100822.50
2019-05-05T21:27:09.806Z,100821.77
2019-05-05T21:29:42.479Z,100823.72
2019-05-05T21:32:14.524Z,100814.29
2019-05-05T21:34:46.089Z,100818.19
2019-05-05T21:37:17.796Z,100812.33
2019-05-05T21:39:49.788Z,100818.10
2019-05-05T21:42:21.414Z,100811.38
2019-05-05T21:44:54.017Z,100807.34
2019-05-05T21:47:25.752Z,100802.48
2019-05-05T21:49:57.803Z,100802.19
2019-05-05T21:52:31.317Z,100799.22
2019-05-05T21:55:20.779Z,100794.62
2019-05-05T21:58:00.151Z,100786.19
2019-05-05T22:00:52.258Z,100795.09
2019-05-05T22:03:40.100Z,100788.28
2019-05-05T22:06:14.411Z,100782.30
2019-05-05T22:08:45.476Z,100784.38
2019-05-05T22:11:17.443Z,100786.17
2019-05-05T22:13:49.210Z,100778.86
2019-05-05T22:16:21.157Z,100776.14
2019-05-05T22:18:54.126Z,100768.84
2019-05-05T22:21:27.556Z,100768.05
2019-05-05T22:24:19.491Z,100771.58
2019-05-05T22:26:53.917Z,100763.52
2019-05-05T22:29:25.197Z,100760.83
2019-05-05T22:31:57.027Z,100752.47
2019-05-05T22:34:30.631Z,100749.75
2019-05-05T22:37:05.440Z,100750.52
2019-05-05T22:39:35.570Z,100744.30
2019-05-05T22:42:07.128Z,100741.63
2019-05-05T22:44:39.033Z,100738.14
2019-05-05T22:47:10.951Z,100744.39
2019-05-05T22:49:44.378Z,100740.92
2019-05-05T22:52:16.239Z,100736.92
2019-05-05T22:54:47.998Z,100735.33
2019-05-05T22:57:19.949Z,100734.80
2019-05-05T22:59:51.626Z,100742.67
2019-05-05T23:02:25.197Z,100736.16
2019-05-05T23:04:58.709Z,100738.27
2019-05-05T23:07:32.993Z,100730.64
2019-05-05T23:10:07.267Z,100737.91
2019-05-05T23:12:39.216Z,100733.81
2019-05-05T23:15:11.082Z,100729.42
2019-05-05T23:17:48.078Z,100730.38
2019-05-05T23:20:44.585Z,100729.45
2019-05-05T23:23:20.884Z,100731.79
2019-05-05T23:25:54.536Z,100725.13
2019-05-05T23:28:26.509Z,100725.84
2019-05-05T23:30:58.329Z,100717.94
2019-05-05T23:33:30.055Z,100717.55
2019-05-05T23:36:04.017Z,100718.60
2019-05-05T23:38:35.420Z,100716.64
2019-05-05T23:41:07.005Z,100712.80
2019-05-05T23:43:38.962Z,100710.57
2019-05-05T23:46:11.036Z,100712.38
2019-05-05T23:48:42.999Z,100708.00
2019-05-05T23:51:15.065Z,100707.43
2019-05-05T23:53:46.825Z,100712.52
2019-05-05T23:56:20.446Z,100706.44
2019-05-05T23:58:52.172Z,100699.61
